Rhinelander, WI

4:32 AM CDT en Noviembre 01, 2014 (GMT -0500)
Rhinelander-Oneida County | Change Station
CLOSE
Current Station
Aeropuerto
Location: Rhinelander,
Altura: 1624 ft
Estaciones meteorológicas cercanas

Alt 1624 ft 45.63 °N, 89.48 °W | Updated 39 minutes ago

Despejado
Despejado
16 ° F
Sensación térmica 16 ° F
N
0
Viento Variable Viento desde Norte

Hoy
Alta -- | Baja -- ° F
--% Posibilidad de precipitaciones
Ayer
Alta -- | Baja -- ° F
Precip. -- pul
7:37 AM 5:44 PM
Gibosa creciente, 64% visible
Presión 30.51 pul
Visibilidad 10.0 Millas
Nubes Despejado
Punto de rocío 14 ° F
Humedad 92%
Precipitaciones 0.00 pul
Espesor de la nieve No disponible.
UV 0 de una escala de 12
Polen .10 de una escala de 12
Calidad del aire No disponible.
Flu Activity No disponible.
METAR KRHI 010853Z AUTO 00000KT 10SM CLR M09/M10 A3043 RMK AO2 SLP332 I1000 I3000 T10891100 50001

More Conditions Fewer Conditions

Presión 30.51 pul
Visibilidad 10.0 Millas
Nubes Despejado
Punto de rocío 14 ° F
Humedad 92%
Precipitaciones 0.00 pul
Espesor de la nieve No disponible.
UV 0 de una escala de 12
Polen .10 de una escala de 12
Calidad del aire No disponible.
Flu Activity No disponible.
METAR KRHI 010853Z AUTO 00000KT 10SM CLR M09/M10 A3043 RMK AO2 SLP332 I1000 I3000 T10891100 50001

More Conditions Fewer Conditions

10-Day Weather Forecast

Almanac

Astronomía

Nov. 01, 2014 Salida Puesta
Hora real
Crepúsculo civil
Crepúsculo náutico
Crepúsculo astronómico
Luna
Horas de luz
Horas de luz
Tomorrow will be .
, % of the Moon is Illuminated

Extremos de hoy

Máximos del estado Bajos del estado

Community

WunderPhotos

Upload Photos

1,766,872 ¡fotos cargadas!

WunderBlogs® & News

Nearby

Calidad del aire

  Calidad del aire Índice AQ Contaminante
Not available.

Grosos de nieve

Estación Profundido Altura

Actividad de terremotos

Ciudad Distance Mag. Tiempo y dato
Magnitud mínima muestra es 2,5.

Temperaturas de aguas costeras

Lugar Temperatura

Estaciones meteorológicas cercanas